Saturday, May 26, 2018, 2:21 AM EDT
Back to Local

KDAW, Skyhaven Airport

Location: Rochester, NH, United States Lat: 43.283
Local Time: 2:21 AM EDT ( 6:21 GMT) Lon: -70.917
Time Zone: US/Eastern Elev: 321 ft

Show me the last for .
Show Decoded

2018-05-26 01:51 METAR KDAW 260551Z AUTO 00000KT 10SM FEW090 21/12 A2969 RMK AO2 SLP048 T02110117
                 10272 20206 58004 =
2018-05-26 00:51 METAR KDAW 260451Z AUTO 00000KT 10SM OVC110 22/12 A2969 RMK AO2 SLP050 T02170122
                 403110100 =
2018-05-25 23:51 METAR KDAW 260351Z AUTO 00000KT 10SM BKN120 23/12 A2970 RMK AO2 SLP053 T02330117
                 =
2018-05-25 22:51 METAR KDAW 260251Z AUTO VRB04KT 10SM CLR 24/11 A2970 RMK AO2 SLP052 T02440106
                 58002 =
2018-05-25 21:51 METAR KDAW 260151Z AUTO VRB04KT 10SM FEW120 26/09 A2971 RMK AO2 SLP056 T02560094
                 =
2018-05-25 20:51 METAR KDAW 260051Z AUTO 00000KT 10SM CLR 26/09 A2971 RMK AO2 SLP055 T02560094 =
2018-05-25 19:51 METAR KDAW 252351Z AUTO VRB03KT 10SM CLR 27/09 A2971 RMK AO2 SLP054 T02720094
                 10311 20272 53001 =
2018-05-25 18:51 METAR KDAW 252251Z AUTO VRB03KT 10SM SCT090 28/10 A2970 RMK AO2 SLP054 T02830100
                 =
2018-05-25 17:51 METAR KDAW 252151Z AUTO VRB04KT 10SM OVC085 28/09 A2970 RMK AO2 SLP054 T02830094
                 =
2018-05-25 16:51 METAR KDAW 252051Z AUTO 28007G22KT 220V320 10SM CLR 31/10 A2970 RMK AO2 SLP054
                 T03060100 56012 =
2018-05-25 15:51 METAR KDAW 251951Z AUTO VRB05KT 10SM FEW120 30/09 A2971 RMK AO2 SLP056 T03000089
                 =
2018-05-25 14:51 METAR KDAW 251851Z AUTO VRB05G15KT 10SM CLR 31/09 A2972 RMK AO2 SLP061 T03060089
                 =
2018-05-25 13:51 METAR KDAW 251751Z AUTO 30014G25KT 10SM CLR 31/08 A2974 RMK AO2 SLP065 T03060083
                 10311 20200 58029 =
2018-05-25 12:51 METAR KDAW 251651Z AUTO 30009G14KT 10SM CLR 30/11 A2976 RMK AO2 SLP075 T03000106
                 =
2018-05-25 11:51 METAR KDAW 251551Z AUTO 28007KT 250V330 10SM CLR 28/11 A2979 RMK AO2 SLP085
                 T02830106 =
2018-05-25 10:51 METAR KDAW 251451Z AUTO VRB05G17KT 10SM CLR 27/12 A2982 RMK AO2 SLP094 T02670117
                 58019 =
2018-05-25 09:51 METAR KDAW 251351Z AUTO VRB04KT 10SM CLR 24/12 A2985 RMK AO2 SLP103 T02440117 =
2018-05-25 08:51 METAR KDAW 251251Z AUTO VRB04KT 10SM CLR 22/11 A2986 RMK AO2 SLP108 T02170106 =
2018-05-25 07:51 METAR KDAW 251151Z AUTO VRB03KT 10SM CLR 20/11 A2988 RMK AO2 SLP115 T02000106
                 10200 20100 58005 =
2018-05-25 06:51 METAR KDAW 251051Z AUTO 00000KT 10SM CLR 16/11 A2989 RMK AO2 SLP117 T01610106 =
2018-05-25 05:51 METAR KDAW 250951Z AUTO 00000KT 10SM CLR 11/09 A2990 RMK AO2 SLP121 T01110089 =
2018-05-25 04:51 METAR KDAW 250851Z AUTO 00000KT 10SM CLR 12/09 A2990 RMK AO2 SLP120 T01170089
                 56018 =
2018-05-25 03:51 METAR KDAW 250751Z AUTO VRB03KT 10SM CLR 11/09 A2990 RMK AO2 SLP122 T01060094 =
2018-05-25 02:51 METAR KDAW 250651Z AUTO 00000KT 10SM SCT100 11/10 A2993 RMK AO2 SLP131 T01060100
                 =

Support USWX by starting your Amazon purchase here.